sensor_id;sensor_type;location;lat;lon;timestamp;pressure;altitude;pressure_sealevel;temperature;humidity
3444;BME280;1736;52.068;6.968;2023-11-21T00:00:57;101123.72;;;8.02;100.00
3444;BME280;1736;52.068;6.968;2023-11-21T00:03:24;101117.28;;;8.06;100.00
3444;BME280;1736;52.068;6.968;2023-11-21T00:05:53;101122.25;;;8.11;100.00
3444;BME280;1736;52.068;6.968;2023-11-21T00:08:21;101124.59;;;8.15;100.00
3444;BME280;1736;52.068;6.968;2023-11-21T00:10:48;101123.66;;;8.16;100.00
3444;BME280;1736;52.068;6.968;2023-11-21T00:13:14;101118.13;;;8.19;100.00
3444;BME280;1736;52.068;6.968;2023-11-21T00:15:43;101116.28;;;8.21;100.00
3444;BME280;1736;52.068;6.968;2023-11-21T00:18:09;101128.88;;;8.30;100.00
3444;BME280;1736;52.068;6.968;2023-11-21T00:20:36;101120.13;;;8.30;100.00
3444;BME280;1736;52.068;6.968;2023-11-21T00:23:03;101116.44;;;8.32;100.00
3444;BME280;1736;52.068;6.968;2023-11-21T00:25:31;101118.75;;;8.37;100.00
3444;BME280;1736;52.068;6.968;2023-11-21T00:27:57;101116.09;;;8.37;100.00
3444;BME280;1736;52.068;6.968;2023-11-21T00:30:26;101111.66;;;8.37;100.00
3444;BME280;1736;52.068;6.968;2023-11-21T00:32:54;101113.56;;;8.35;100.00
3444;BME280;1736;52.068;6.968;2023-11-21T00:35:20;101110.50;;;8.41;100.00
3444;BME280;1736;52.068;6.968;2023-11-21T00:37:47;101101.63;;;8.42;100.00
3444;BME280;1736;52.068;6.968;2023-11-21T00:40:15;101105.13;;;8.43;100.00
3444;BME280;1736;52.068;6.968;2023-11-21T00:42:45;101117.59;;;8.41;100.00
3444;BME280;1736;52.068;6.968;2023-11-21T00:45:12;101124.56;;;8.42;100.00
3444;BME280;1736;52.068;6.968;2023-11-21T00:47:39;101116.53;;;8.43;100.00
3444;BME280;1736;52.068;6.968;2023-11-21T00:50:07;101111.22;;;8.43;100.00
3444;BME280;1736;52.068;6.968;2023-11-21T00:52:33;101107.66;;;8.44;100.00
3444;BME280;1736;52.068;6.968;2023-11-21T00:55:01;101111.03;;;8.46;100.00
3444;BME280;1736;52.068;6.968;2023-11-21T00:57:28;101111.03;;;8.46;100.00
3444;BME280;1736;52.068;6.968;2023-11-21T00:59:56;101117.28;;;8.45;100.00
3444;BME280;1736;52.068;6.968;2023-11-21T01:02:22;101118.00;;;8.47;100.00
3444;BME280;1736;52.068;6.968;2023-11-21T01:04:50;101117.09;;;8.48;100.00
3444;BME280;1736;52.068;6.968;2023-11-21T01:07:17;101118.00;;;8.47;100.00
3444;BME280;1736;52.068;6.968;2023-11-21T01:09:45;101124.06;;;8.49;100.00
3444;BME280;1736;52.068;6.968;2023-11-21T01:12:12;101123.19;;;8.49;100.00
3444;BME280;1736;52.068;6.968;2023-11-21T01:14:38;101122.38;;;8.48;100.00
3444;BME280;1736;52.068;6.968;2023-11-21T01:17:06;101133.06;;;8.47;100.00
3444;BME280;1736;52.068;6.968;2023-11-21T01:19:33;101126.81;;;8.48;100.00
3444;BME280;1736;52.068;6.968;2023-11-21T01:22:00;101132.00;;;8.49;100.00
3444;BME280;1736;52.068;6.968;2023-11-21T01:24:26;101137.47;;;8.46;100.00
3444;BME280;1736;52.068;6.968;2023-11-21T01:26:53;101133.88;;;8.47;100.00
3444;BME280;1736;52.068;6.968;2023-11-21T01:29:19;101146.03;;;8.50;100.00
3444;BME280;1736;52.068;6.968;2023-11-21T01:31:46;101150.41;;;8.51;100.00
3444;BME280;1736;52.068;6.968;2023-11-21T01:34:14;101140.66;;;8.51;100.00
3444;BME280;1736;52.068;6.968;2023-11-21T01:36:41;101157.19;;;8.55;100.00
3444;BME280;1736;52.068;6.968;2023-11-21T01:39:07;101156.31;;;8.54;100.00
3444;BME280;1736;52.068;6.968;2023-11-21T01:41:36;101153.47;;;8.57;100.00
3444;BME280;1736;52.068;6.968;2023-11-21T01:44:04;101156.13;;;8.57;100.00
3444;BME280;1736;52.068;6.968;2023-11-21T01:46:32;101149.16;;;8.56;100.00
3444;BME280;1736;52.068;6.968;2023-11-21T01:49:00;101145.53;;;8.57;100.00
3444;BME280;1736;52.068;6.968;2023-11-21T01:51:28;101148.09;;;8.59;100.00
3444;BME280;1736;52.068;6.968;2023-11-21T01:53:55;101148.91;;;8.59;100.00
3444;BME280;1736;52.068;6.968;2023-11-21T01:56:22;101143.72;;;8.58;100.00
3444;BME280;1736;52.068;6.968;2023-11-21T01:58:48;101149.69;;;8.61;100.00
3444;BME280;1736;52.068;6.968;2023-11-21T02:01:15;101154.00;;;8.62;100.00
3444;BME280;1736;52.068;6.968;2023-11-21T02:03:43;101145.44;;;8.59;100.00
3444;BME280;1736;52.068;6.968;2023-11-21T02:06:10;101143.63;;;8.59;100.00
3444;BME280;1736;52.068;6.968;2023-11-21T02:08:38;101144.28;;;8.63;100.00
3444;BME280;1736;52.068;6.968;2023-11-21T02:11:05;101138.91;;;8.64;100.00
3444;BME280;1736;52.068;6.968;2023-11-21T02:13:32;101148.63;;;8.64;100.00
3444;BME280;1736;52.068;6.968;2023-11-21T02:15:59;101135.50;;;8.62;100.00
3444;BME280;1736;52.068;6.968;2023-11-21T02:18:25;101140.06;;;8.60;100.00
3444;BME280;1736;52.068;6.968;2023-11-21T02:20:55;101146.84;;;8.64;100.00
3444;BME280;1736;52.068;6.968;2023-11-21T02:23:23;101144.38;;;8.61;100.00
3444;BME280;1736;52.068;6.968;2023-11-21T02:25:54;101149.69;;;8.61;100.00
3444;BME280;1736;52.068;6.968;2023-11-21T02:28:21;101145.22;;;8.62;100.00
3444;BME280;1736;52.068;6.968;2023-11-21T02:30:51;101153.03;;;8.63;100.00
3444;BME280;1736;52.068;6.968;2023-11-21T02:33:21;101153.16;;;8.62;100.00
3444;BME280;1736;52.068;6.968;2023-11-21T02:35:47;101157.59;;;8.61;100.00
3444;BME280;1736;52.068;6.968;2023-11-21T02:38:14;101158.66;;;8.59;100.00
3444;BME280;1736;52.068;6.968;2023-11-21T02:40:42;101158.44;;;8.62;100.00
3444;BME280;1736;52.068;6.968;2023-11-21T02:43:09;101158.56;;;8.60;100.00
3444;BME280;1736;52.068;6.968;2023-11-21T02:45:35;101154.97;;;8.61;100.00
3444;BME280;1736;52.068;6.968;2023-11-21T02:48:02;101168.19;;;8.61;100.00
3444;BME280;1736;52.068;6.968;2023-11-21T02:50:29;101156.94;;;8.58;100.00
3444;BME280;1736;52.068;6.968;2023-11-21T02:52:56;101158.66;;;8.59;100.00
3444;BME280;1736;52.068;6.968;2023-11-21T02:55:25;101152.72;;;8.55;100.00
3444;BME280;1736;52.068;6.968;2023-11-21T02:57:54;101155.06;;;8.60;100.00
3444;BME280;1736;52.068;6.968;2023-11-21T03:00:22;101144.59;;;8.58;100.00
3444;BME280;1736;52.068;6.968;2023-11-21T03:02:49;101150.72;;;8.59;100.00
3444;BME280;1736;52.068;6.968;2023-11-21T03:05:16;101162.25;;;8.58;100.00
3444;BME280;1736;52.068;6.968;2023-11-21T03:07:43;101151.66;;;8.58;100.00
3444;BME280;1736;52.068;6.968;2023-11-21T03:10:10;101166.72;;;8.57;100.00
3444;BME280;1736;52.068;6.968;2023-11-21T03:12:37;101167.53;;;8.58;100.00
3444;BME280;1736;52.068;6.968;2023-11-21T03:15:06;101172.00;;;8.57;100.00
3444;BME280;1736;52.068;6.968;2023-11-21T03:17:33;101174.84;;;8.54;100.00
3444;BME280;1736;52.068;6.968;2023-11-21T03:20:00;101175.81;;;8.53;100.00
3444;BME280;1736;52.068;6.968;2023-11-21T03:22:27;101174.13;;;8.52;100.00
3444;BME280;1736;52.068;6.968;2023-11-21T03:24:54;101179.59;;;8.49;100.00
3444;BME280;1736;52.068;6.968;2023-11-21T03:27:20;101173.34;;;8.50;100.00
3444;BME280;1736;52.068;6.968;2023-11-21T03:29:47;101181.09;;;8.53;100.00
3444;BME280;1736;52.068;6.968;2023-11-21T03:32:16;101184.69;;;8.52;100.00
3444;BME280;1736;52.068;6.968;2023-11-21T03:34:53;101184.88;;;8.49;100.00
3444;BME280;1736;52.068;6.968;2023-11-21T03:37:21;101173.44;;;8.49;100.00
3444;BME280;1736;52.068;6.968;2023-11-21T03:39:47;101180.94;;;8.42;100.00
3444;BME280;1736;52.068;6.968;2023-11-21T03:42:14;101182.75;;;8.42;100.00
3444;BME280;1736;52.068;6.968;2023-11-21T03:44:41;101181.91;;;8.41;100.00
3444;BME280;1736;52.068;6.968;2023-11-21T03:47:07;101176.09;;;8.36;100.00
3444;BME280;1736;52.068;6.968;2023-11-21T03:49:35;101190.13;;;8.37;100.00
3444;BME280;1736;52.068;6.968;2023-11-21T03:52:02;101179.88;;;8.32;100.00
3444;BME280;1736;52.068;6.968;2023-11-21T03:54:29;101188.75;;;8.31;100.00
3444;BME280;1736;52.068;6.968;2023-11-21T03:56:55;101178.50;;;8.27;100.00
3444;BME280;1736;52.068;6.968;2023-11-21T03:59:22;101181.34;;;8.24;100.00
3444;BME280;1736;52.068;6.968;2023-11-21T04:01:49;101181.59;;;8.19;100.00
3444;BME280;1736;52.068;6.968;2023-11-21T04:04:16;101179.91;;;8.18;100.00
3444;BME280;1736;52.068;6.968;2023-11-21T04:06:44;101182.09;;;8.12;100.00
3444;BME280;1736;52.068;6.968;2023-11-21T04:09:10;101186.53;;;8.11;100.00
3444;BME280;1736;52.068;6.968;2023-11-21T04:11:37;101195.97;;;8.15;100.00
3444;BME280;1736;52.068;6.968;2023-11-21T04:14:04;101198.97;;;8.23;100.00
3444;BME280;1736;52.068;6.968;2023-11-21T04:16:31;101200.88;;;8.21;100.00
3444;BME280;1736;52.068;6.968;2023-11-21T04:18:58;101204.66;;;8.17;100.00
3444;BME280;1736;52.068;6.968;2023-11-21T04:21:25;101211.63;;;8.18;100.00
3444;BME280;1736;52.068;6.968;2023-11-21T04:23:53;101216.09;;;8.18;100.00
3444;BME280;1736;52.068;6.968;2023-11-21T04:26:20;101221.38;;;8.18;100.00
3444;BME280;1736;52.068;6.968;2023-11-21T04:28:47;101221.19;;;8.21;100.00
3444;BME280;1736;52.068;6.968;2023-11-21T04:31:13;101225.41;;;8.23;100.00
3444;BME280;1736;52.068;6.968;2023-11-21T04:33:40;101224.59;;;8.23;100.00
3444;BME280;1736;52.068;6.968;2023-11-21T04:36:07;101235.06;;;8.24;100.00
3444;BME280;1736;52.068;6.968;2023-11-21T04:38:34;101240.44;;;8.23;100.00
3444;BME280;1736;52.068;6.968;2023-11-21T04:41:02;101242.13;;;8.24;100.00
3444;BME280;1736;52.068;6.968;2023-11-21T04:43:28;101231.66;;;8.22;100.00
3444;BME280;1736;52.068;6.968;2023-11-21T04:45:55;101237.81;;;8.23;100.00
3444;BME280;1736;52.068;6.968;2023-11-21T04:48:21;101240.44;;;8.23;100.00
3444;BME280;1736;52.068;6.968;2023-11-21T04:50:48;101249.22;;;8.23;100.00
3444;BME280;1736;52.068;6.968;2023-11-21T04:53:15;101244.88;;;8.22;100.00
3444;BME280;1736;52.068;6.968;2023-11-21T04:55:42;101250.31;;;8.19;100.00
3444;BME280;1736;52.068;6.968;2023-11-21T04:58:11;101255.44;;;8.22;100.00
3444;BME280;1736;52.068;6.968;2023-11-21T05:00:38;101266.03;;;8.22;100.00
3444;BME280;1736;52.068;6.968;2023-11-21T05:03:06;101257.91;;;8.25;100.00
3444;BME280;1736;52.068;6.968;2023-11-21T05:05:33;101256.31;;;8.23;100.00
3444;BME280;1736;52.068;6.968;2023-11-21T05:08:00;101266.03;;;8.22;100.00
3444;BME280;1736;52.068;6.968;2023-11-21T05:10:28;101276.59;;;8.22;100.00
3444;BME280;1736;52.068;6.968;2023-11-21T05:12:55;101281.72;;;8.25;100.00
3444;BME280;1736;52.068;6.968;2023-11-21T05:15:23;101280.94;;;8.23;100.00
3444;BME280;1736;52.068;6.968;2023-11-21T05:17:50;101289.97;;;8.19;100.00
3444;BME280;1736;52.068;6.968;2023-11-21T05:20:17;101295.00;;;8.24;100.00
3444;BME280;1736;52.068;6.968;2023-11-21T05:22:46;101299.44;;;8.23;100.00
3444;BME280;1736;52.068;6.968;2023-11-21T05:25:14;101308.34;;;8.22;100.00
3444;BME280;1736;52.068;6.968;2023-11-21T05:27:40;101310.22;;;8.20;100.00
3444;BME280;1736;52.068;6.968;2023-11-21T05:30:07;101315.31;;;8.23;100.00
3444;BME280;1736;52.068;6.968;2023-11-21T05:32:39;101318.31;;;8.17;100.00
3444;BME280;1736;52.068;6.968;2023-11-21T05:35:07;101321.94;;;8.16;100.00
3444;BME280;1736;52.068;6.968;2023-11-21T05:37:39;101326.06;;;8.20;100.00
3444;BME280;1736;52.068;6.968;2023-11-21T05:40:07;101325.22;;;8.20;100.00
3444;BME280;1736;52.068;6.968;2023-11-21T05:42:34;101336.47;;;8.23;100.00
3444;BME280;1736;52.068;6.968;2023-11-21T05:45:01;101330.34;;;8.23;100.00
3444;BME280;1736;52.068;6.968;2023-11-21T05:47:36;101332.13;;;8.22;100.00
3444;BME280;1736;52.068;6.968;2023-11-21T05:50:05;101334.78;;;8.22;100.00
3444;BME280;1736;52.068;6.968;2023-11-21T05:52:34;101338.28;;;8.23;100.00
3444;BME280;1736;52.068;6.968;2023-11-21T05:55:01;101336.09;;;8.29;100.00
3444;BME280;1736;52.068;6.968;2023-11-21T05:57:28;101355.75;;;8.25;100.00
3444;BME280;1736;52.068;6.968;2023-11-21T05:59:55;101356.59;;;8.26;100.00
3444;BME280;1736;52.068;6.968;2023-11-21T06:02:22;101360.16;;;8.25;100.00
3444;BME280;1736;52.068;6.968;2023-11-21T06:04:48;101361.97;;;8.24;100.00
3444;BME280;1736;52.068;6.968;2023-11-21T06:07:16;101351.31;;;8.26;100.00
3444;BME280;1736;52.068;6.968;2023-11-21T06:09:43;101352.13;;;8.26;100.00
3444;BME280;1736;52.068;6.968;2023-11-21T06:12:10;101358.38;;;8.25;100.00
3444;BME280;1736;52.068;6.968;2023-11-21T06:14:36;101358.38;;;8.25;100.00
3444;BME280;1736;52.068;6.968;2023-11-21T06:17:03;101363.03;;;8.22;100.00
3444;BME280;1736;52.068;6.968;2023-11-21T06:19:30;101373.47;;;8.23;100.00
3444;BME280;1736;52.068;6.968;2023-11-21T06:21:56;101361.38;;;8.19;100.00
3444;BME280;1736;52.068;6.968;2023-11-21T06:24:24;101369.22;;;8.21;100.00
3444;BME280;1736;52.068;6.968;2023-11-21T06:26:51;101368.38;;;8.20;100.00
3444;BME280;1736;52.068;6.968;2023-11-21T06:29:17;101373.59;;;8.22;100.00
3444;BME280;1736;52.068;6.968;2023-11-21T06:31:44;101385.00;;;8.22;100.00
3444;BME280;1736;52.068;6.968;2023-11-21T06:34:11;101380.50;;;8.24;100.00
3444;BME280;1736;52.068;6.968;2023-11-21T06:36:39;101376.97;;;8.24;100.00
3444;BME280;1736;52.068;6.968;2023-11-21T06:39:05;101381.31;;;8.25;100.00
3444;BME280;1736;52.068;6.968;2023-11-21T06:41:34;101390.28;;;8.22;100.00
3444;BME280;1736;52.068;6.968;2023-11-21T06:44:04;101388.50;;;8.23;100.00
3444;BME280;1736;52.068;6.968;2023-11-21T06:46:30;101398.91;;;8.26;100.00
3444;BME280;1736;52.068;6.968;2023-11-21T06:48:57;101394.63;;;8.23;100.00
3444;BME280;1736;52.068;6.968;2023-11-21T06:51:24;101399.91;;;8.23;100.00
3444;BME280;1736;52.068;6.968;2023-11-21T06:53:50;101401.81;;;8.21;100.00
3444;BME280;1736;52.068;6.968;2023-11-21T06:56:17;101397.72;;;8.16;100.00
3444;BME280;1736;52.068;6.968;2023-11-21T06:58:46;101403.66;;;8.19;100.00
3444;BME280;1736;52.068;6.968;2023-11-21T07:01:13;101406.25;;;8.21;100.00
3444;BME280;1736;52.068;6.968;2023-11-21T07:03:40;101418.59;;;8.20;100.00
3444;BME280;1736;52.068;6.968;2023-11-21T07:06:08;101412.56;;;8.18;100.00
3444;BME280;1736;52.068;6.968;2023-11-21T07:08:34;101416.81;;;8.21;100.00
3444;BME280;1736;52.068;6.968;2023-11-21T07:11:01;101424.75;;;8.21;100.00
3444;BME280;1736;52.068;6.968;2023-11-21T07:13:28;101434.41;;;8.22;100.00
3444;BME280;1736;52.068;6.968;2023-11-21T07:15:56;101438.66;;;8.24;100.00
3444;BME280;1736;52.068;6.968;2023-11-21T07:18:23;101434.78;;;8.30;100.00
3444;BME280;1736;52.068;6.968;2023-11-21T07:20:49;101434.88;;;8.28;100.00
3444;BME280;1736;52.068;6.968;2023-11-21T07:23:17;101444.31;;;8.32;100.00
3444;BME280;1736;52.068;6.968;2023-11-21T07:25:43;101453.09;;;8.33;100.00
3444;BME280;1736;52.068;6.968;2023-11-21T07:28:10;101447.88;;;8.31;100.00
3444;BME280;1736;52.068;6.968;2023-11-21T07:30:36;101455.81;;;8.31;100.00
3444;BME280;1736;52.068;6.968;2023-11-21T07:33:05;101455.94;;;8.30;100.00
3444;BME280;1736;52.068;6.968;2023-11-21T07:35:32;101461.09;;;8.31;100.00
3444;BME280;1736;52.068;6.968;2023-11-21T07:37:59;101472.38;;;8.35;100.00
3444;BME280;1736;52.068;6.968;2023-11-21T07:40:26;101465.34;;;8.34;100.00
3444;BME280;1736;52.068;6.968;2023-11-21T07:42:52;101481.22;;;8.34;100.00
3444;BME280;1736;52.068;6.968;2023-11-21T07:45:22;101490.09;;;8.33;100.00
3444;BME280;1736;52.068;6.968;2023-11-21T07:47:49;101507.41;;;8.38;100.00
3444;BME280;1736;52.068;6.968;2023-11-21T07:50:17;101497.59;;;8.40;100.00
3444;BME280;1736;52.068;6.968;2023-11-21T07:52:45;101506.25;;;8.42;100.00
3444;BME280;1736;52.068;6.968;2023-11-21T07:55:11;101507.03;;;8.44;100.00
3444;BME280;1736;52.068;6.968;2023-11-21T07:57:39;101511.38;;;8.45;100.00
3444;BME280;1736;52.068;6.968;2023-11-21T08:00:06;101524.97;;;8.53;100.00
3444;BME280;1736;52.068;6.968;2023-11-21T08:02:34;101531.09;;;8.54;100.00
3444;BME280;1736;52.068;6.968;2023-11-21T08:05:01;101530.91;;;8.57;100.00
3444;BME280;1736;52.068;6.968;2023-11-21T08:07:28;101536.88;;;8.60;100.00
3444;BME280;1736;52.068;6.968;2023-11-21T08:09:55;101535.84;;;8.63;100.00
3444;BME280;1736;52.068;6.968;2023-11-21T08:12:22;101542.63;;;8.67;100.00
3444;BME280;1736;52.068;6.968;2023-11-21T08:14:49;101541.03;;;8.64;100.00
3444;BME280;1736;52.068;6.968;2023-11-21T08:17:15;101541.78;;;8.66;100.00
3444;BME280;1736;52.068;6.968;2023-11-21T08:19:42;101546.78;;;8.71;100.00
3444;BME280;1736;52.068;6.968;2023-11-21T08:22:13;101545.84;;;8.72;100.00
3444;BME280;1736;52.068;6.968;2023-11-21T08:24:42;101549.03;;;8.77;100.00
3444;BME280;1736;52.068;6.968;2023-11-21T08:27:09;101548.19;;;8.76;100.00
3444;BME280;1736;52.068;6.968;2023-11-21T08:29:36;101549.13;;;8.75;100.00
3444;BME280;1736;52.068;6.968;2023-11-21T08:32:03;101556.25;;;8.75;100.00
3444;BME280;1736;52.068;6.968;2023-11-21T08:34:30;101547.63;;;8.71;100.00
3444;BME280;1736;52.068;6.968;2023-11-21T08:36:57;101555.88;;;8.67;100.00
3444;BME280;1736;52.068;6.968;2023-11-21T08:39:23;101552.19;;;8.69;100.00
3444;BME280;1736;52.068;6.968;2023-11-21T08:41:51;101552.28;;;8.68;100.00
3444;BME280;1736;52.068;6.968;2023-11-21T08:44:18;101560.84;;;8.71;100.00
3444;BME280;1736;52.068;6.968;2023-11-21T08:46:45;101560.69;;;8.74;100.00
3444;BME280;1736;52.068;6.968;2023-11-21T08:49:12;101560.28;;;8.80;100.00
3444;BME280;1736;52.068;6.968;2023-11-21T08:51:39;101566.16;;;8.85;100.00
3444;BME280;1736;52.068;6.968;2023-11-21T08:54:06;101565.03;;;8.89;100.00
3444;BME280;1736;52.068;6.968;2023-11-21T08:56:33;101568.81;;;8.85;100.00
3444;BME280;1736;52.068;6.968;2023-11-21T08:59:01;101571.38;;;8.87;100.00
3444;BME280;1736;52.068;6.968;2023-11-21T09:01:28;101561.41;;;8.90;100.00
3444;BME280;1736;52.068;6.968;2023-11-21T09:03:56;101575.03;;;8.98;100.00
3444;BME280;1736;52.068;6.968;2023-11-21T09:06:23;101573.03;;;9.02;100.00
3444;BME280;1736;52.068;6.968;2023-11-21T09:08:50;101579.72;;;9.07;100.00
3444;BME280;1736;52.068;6.968;2023-11-21T09:11:16;101584.66;;;9.13;100.00
3444;BME280;1736;52.068;6.968;2023-11-21T09:13:44;101587.59;;;9.09;100.00
3444;BME280;1736;52.068;6.968;2023-11-21T09:16:13;101580.69;;;9.06;100.00
3444;BME280;1736;52.068;6.968;2023-11-21T09:18:40;101582.94;;;9.12;100.00
3444;BME280;1736;52.068;6.968;2023-11-21T09:21:07;101580.56;;;9.22;100.00
3444;BME280;1736;52.068;6.968;2023-11-21T09:23:34;101594.06;;;9.31;100.00
3444;BME280;1736;52.068;6.968;2023-11-21T09:26:00;101591.13;;;9.36;100.00
3444;BME280;1736;52.068;6.968;2023-11-21T09:28:27;101588.25;;;9.39;100.00
3444;BME280;1736;52.068;6.968;2023-11-21T09:30:54;101586.63;;;9.24;100.00
3444;BME280;1736;52.068;6.968;2023-11-21T09:33:22;101580.28;;;9.26;100.00
3444;BME280;1736;52.068;6.968;2023-11-21T09:35:50;101585.34;;;9.29;100.00
3444;BME280;1736;52.068;6.968;2023-11-21T09:38:17;101574.31;;;9.23;100.00
3444;BME280;1736;52.068;6.968;2023-11-21T09:40:44;101566.06;;;9.27;100.00
3444;BME280;1736;52.068;6.968;2023-11-21T09:43:16;101581.09;;;9.27;100.00
3444;BME280;1736;52.068;6.968;2023-11-21T09:45:45;101583.97;;;9.24;100.00
3444;BME280;1736;52.068;6.968;2023-11-21T09:48:12;101591.59;;;9.28;100.00
3444;BME280;1736;52.068;6.968;2023-11-21T09:50:41;101594.59;;;9.36;100.00
3444;BME280;1736;52.068;6.968;2023-11-21T09:53:13;101604.91;;;9.41;100.00
3444;BME280;1736;52.068;6.968;2023-11-21T09:55:42;101595.31;;;9.26;100.00
3444;BME280;1736;52.068;6.968;2023-11-21T09:58:10;101602.75;;;9.33;100.00
3444;BME280;1736;52.068;6.968;2023-11-21T10:00:40;101603.41;;;9.37;100.00
3444;BME280;1736;52.068;6.968;2023-11-21T10:03:07;101598.22;;;9.35;100.00
3444;BME280;1736;52.068;6.968;2023-11-21T10:05:34;101600.97;;;9.34;100.00
3444;BME280;1736;52.068;6.968;2023-11-21T10:08:03;101595.75;;;9.32;100.00
3444;BME280;1736;52.068;6.968;2023-11-21T10:10:32;101599.19;;;9.20;100.00
3444;BME280;1736;52.068;6.968;2023-11-21T10:13:02;101603.69;;;9.32;100.00
3444;BME280;1736;52.068;6.968;2023-11-21T10:15:33;101603.31;;;9.38;100.00
3444;BME280;1736;52.068;6.968;2023-11-21T10:18:02;101606.75;;;9.26;100.00
3444;BME280;1736;52.068;6.968;2023-11-21T10:20:29;101610.97;;;9.43;100.00
3444;BME280;1736;52.068;6.968;2023-11-21T10:22:56;101611.81;;;9.43;100.00
3444;BME280;1736;52.068;6.968;2023-11-21T10:25:24;101611.75;;;9.57;100.00
3444;BME280;1736;52.068;6.968;2023-11-21T10:27:57;101611.19;;;9.66;100.00
3444;BME280;1736;52.068;6.968;2023-11-21T10:30:28;101615.09;;;9.47;100.00
3444;BME280;1736;52.068;6.968;2023-11-21T10:32:58;101610.69;;;9.47;100.00
3444;BME280;1736;52.068;6.968;2023-11-21T10:35:38;101610.38;;;9.52;100.00
3444;BME280;1736;52.068;6.968;2023-11-21T10:38:05;101608.38;;;9.55;100.00
3444;BME280;1736;52.068;6.968;2023-11-21T10:40:37;101612.38;;;9.48;100.00
3444;BME280;1736;52.068;6.968;2023-11-21T10:43:06;101609.16;;;9.43;100.00
3444;BME280;1736;52.068;6.968;2023-11-21T10:45:34;101606.88;;;9.51;100.00
3444;BME280;1736;52.068;6.968;2023-11-21T10:48:05;101608.56;;;9.52;100.00
3444;BME280;1736;52.068;6.968;2023-11-21T10:50:33;101617.47;;;9.51;100.00
3444;BME280;1736;52.068;6.968;2023-11-21T10:53:02;101620.94;;;9.66;100.00
3444;BME280;1736;52.068;6.968;2023-11-21T10:55:29;101617.56;;;9.76;100.00
3444;BME280;1736;52.068;6.968;2023-11-21T10:57:58;101636.69;;;9.81;100.00
3444;BME280;1736;52.068;6.968;2023-11-21T11:00:26;101616.84;;;9.74;100.00
3444;BME280;1736;52.068;6.968;2023-11-21T11:02:53;101618.81;;;9.71;100.00
3444;BME280;1736;52.068;6.968;2023-11-21T11:05:22;101625.00;;;9.71;100.00
3444;BME280;1736;52.068;6.968;2023-11-21T11:07:50;101626.50;;;9.75;100.00
3444;BME280;1736;52.068;6.968;2023-11-21T11:10:19;101619.50;;;9.87;100.00
3444;BME280;1736;52.068;6.968;2023-11-21T11:12:48;101622.72;;;9.65;100.00
3444;BME280;1736;52.068;6.968;2023-11-21T11:15:16;101620.41;;;9.73;100.00
3444;BME280;1736;52.068;6.968;2023-11-21T11:17:43;101625.88;;;9.84;100.00
3444;BME280;1736;52.068;6.968;2023-11-21T11:20:13;101622.00;;;9.76;100.00
3444;BME280;1736;52.068;6.968;2023-11-21T11:22:46;101609.09;;;9.71;100.00
3444;BME280;1736;52.068;6.968;2023-11-21T11:25:45;101647.50;;;9.78;100.00
3444;BME280;1736;52.068;6.968;2023-11-21T11:28:20;101651.31;;;9.74;100.00
3444;BME280;1736;52.068;6.968;2023-11-21T11:30:58;101659.91;;;9.64;100.00
3444;BME280;1736;52.068;6.968;2023-11-21T11:33:33;101654.69;;;9.76;100.00
3444;BME280;1736;52.068;6.968;2023-11-21T11:36:06;101667.66;;;9.81;100.00
3444;BME280;1736;52.068;6.968;2023-11-21T11:38:33;101664.31;;;9.77;100.00
3444;BME280;1736;52.068;6.968;2023-11-21T11:41:02;101655.75;;;9.74;100.00
3444;BME280;1736;52.068;6.968;2023-11-21T11:43:30;101666.19;;;9.89;100.00
3444;BME280;1736;52.068;6.968;2023-11-21T11:45:59;101664.19;;;9.93;100.00
3444;BME280;1736;52.068;6.968;2023-11-21T11:48:28;101663.88;;;9.97;100.00
3444;BME280;1736;52.068;6.968;2023-11-21T11:51:02;101656.25;;;9.93;100.00
3444;BME280;1736;52.068;6.968;2023-11-21T11:53:33;101652.38;;;9.84;100.00
3444;BME280;1736;52.068;6.968;2023-11-21T11:56:23;101660.59;;;9.67;100.00
3444;BME280;1736;52.068;6.968;2023-11-21T11:58:52;101666.34;;;9.74;100.00
3444;BME280;1736;52.068;6.968;2023-11-21T12:01:21;101656.78;;;9.71;100.00
3444;BME280;1736;52.068;6.968;2023-11-21T12:06:51;101668.00;;;9.62;100.00
3444;BME280;1736;52.068;6.968;2023-11-21T12:09:18;101681.53;;;9.58;100.00
3444;BME280;1736;52.068;6.968;2023-11-21T12:11:45;101675.38;;;9.57;100.00
3444;BME280;1736;52.068;6.968;2023-11-21T12:14:13;101678.97;;;9.56;100.00
3444;BME280;1736;52.068;6.968;2023-11-21T12:16:41;101687.31;;;9.36;100.00
3444;BME280;1736;52.068;6.968;2023-11-21T12:19:09;101700.94;;;9.44;100.00
3444;BME280;1736;52.068;6.968;2023-11-21T12:21:36;101698.28;;;9.44;100.00
3444;BME280;1736;52.068;6.968;2023-11-21T12:24:03;101702.44;;;9.48;100.00
3444;BME280;1736;52.068;6.968;2023-11-21T12:26:33;101717.78;;;9.43;100.00
3444;BME280;1736;52.068;6.968;2023-11-21T12:29:00;101735.97;;;9.35;100.00
3444;BME280;1736;52.068;6.968;2023-11-21T12:31:29;101712.31;;;9.32;100.00
3444;BME280;1736;52.068;6.968;2023-11-21T12:33:57;101797.06;;;9.32;100.00
3444;BME280;1736;52.068;6.968;2023-11-21T12:36:24;101741.53;;;9.31;100.00
3444;BME280;1736;52.068;6.968;2023-11-21T12:38:51;101726.22;;;9.36;100.00
3444;BME280;1736;52.068;6.968;2023-11-21T12:41:18;101722.72;;;9.35;100.00
3444;BME280;1736;52.068;6.968;2023-11-21T12:43:46;101712.50;;;9.43;100.00
3444;BME280;1736;52.068;6.968;2023-11-21T12:46:13;101715.22;;;9.42;100.00
3444;BME280;1736;52.068;6.968;2023-11-21T12:48:41;101706.69;;;9.51;100.00
3444;BME280;1736;52.068;6.968;2023-11-21T12:51:10;101713.41;;;9.56;100.00
3444;BME280;1736;52.068;6.968;2023-11-21T12:53:39;101706.16;;;9.46;100.00
3444;BME280;1736;52.068;6.968;2023-11-21T12:56:07;101715.16;;;9.43;100.00
3444;BME280;1736;52.068;6.968;2023-11-21T12:58:34;101716.25;;;9.53;100.00
3444;BME280;1736;52.068;6.968;2023-11-21T13:01:01;101708.53;;;9.50;100.00
3444;BME280;1736;52.068;6.968;2023-11-21T13:03:29;101711.63;;;9.43;100.00
3444;BME280;1736;52.068;6.968;2023-11-21T13:05:56;101711.75;;;9.13;100.00
3444;BME280;1736;52.068;6.968;2023-11-21T13:08:26;101708.91;;;9.02;100.00
3444;BME280;1736;52.068;6.968;2023-11-21T13:10:56;101716.47;;;8.94;100.00
3444;BME280;1736;52.068;6.968;2023-11-21T13:13:24;101724.31;;;8.96;100.00
3444;BME280;1736;52.068;6.968;2023-11-21T13:15:54;101717.59;;;9.04;100.00